sensor_id;sensor_type;location;lat;lon;timestamp;pressure;altitude;pressure_sealevel;temperature
17142;BMP180;32805;53.556;9.944;2023-02-28T00:02:16;102952.00;;;5.20
17142;BMP180;32805;53.556;9.944;2023-02-28T00:04:44;102957.00;;;5.20
17142;BMP180;32805;53.556;9.944;2023-02-28T00:07:12;102949.00;;;5.20
17142;BMP180;32805;53.556;9.944;2023-02-28T00:09:40;102949.00;;;5.20
17142;BMP180;32805;53.556;9.944;2023-02-28T00:12:09;102937.00;;;5.20
17142;BMP180;32805;53.556;9.944;2023-02-28T00:14:37;102950.00;;;5.10
17142;BMP180;32805;53.556;9.944;2023-02-28T00:17:04;102961.00;;;5.10
17142;BMP180;32805;53.556;9.944;2023-02-28T00:19:32;102958.00;;;5.00
17142;BMP180;32805;53.556;9.944;2023-02-28T00:22:00;102962.00;;;5.00
17142;BMP180;32805;53.556;9.944;2023-02-28T00:24:27;102969.00;;;5.00
17142;BMP180;32805;53.556;9.944;2023-02-28T00:26:55;102967.00;;;4.90
17142;BMP180;32805;53.556;9.944;2023-02-28T00:29:24;102967.00;;;4.90
17142;BMP180;32805;53.556;9.944;2023-02-28T00:31:51;102959.00;;;4.90
17142;BMP180;32805;53.556;9.944;2023-02-28T00:34:19;102962.00;;;4.90
17142;BMP180;32805;53.556;9.944;2023-02-28T00:36:47;102951.00;;;4.90
17142;BMP180;32805;53.556;9.944;2023-02-28T00:39:16;102954.00;;;4.90
17142;BMP180;32805;53.556;9.944;2023-02-28T00:41:44;102965.00;;;4.90
17142;BMP180;32805;53.556;9.944;2023-02-28T00:44:13;102953.00;;;4.80
17142;BMP180;32805;53.556;9.944;2023-02-28T00:46:41;102958.00;;;4.80
17142;BMP180;32805;53.556;9.944;2023-02-28T00:49:09;102955.00;;;4.80
17142;BMP180;32805;53.556;9.944;2023-02-28T00:51:37;102961.00;;;4.90
17142;BMP180;32805;53.556;9.944;2023-02-28T00:54:04;102958.00;;;4.90
17142;BMP180;32805;53.556;9.944;2023-02-28T00:56:32;102956.00;;;4.90
17142;BMP180;32805;53.556;9.944;2023-02-28T00:58:59;102961.00;;;4.90
17142;BMP180;32805;53.556;9.944;2023-02-28T01:01:27;102960.00;;;4.80
17142;BMP180;32805;53.556;9.944;2023-02-28T01:03:56;102944.00;;;4.80
17142;BMP180;32805;53.556;9.944;2023-02-28T01:06:24;102967.00;;;4.80
17142;BMP180;32805;53.556;9.944;2023-02-28T01:08:52;102975.00;;;4.80
17142;BMP180;32805;53.556;9.944;2023-02-28T01:11:19;102962.00;;;4.80
17142;BMP180;32805;53.556;9.944;2023-02-28T01:13:47;102967.00;;;4.80
17142;BMP180;32805;53.556;9.944;2023-02-28T01:16:15;102969.00;;;4.80
17142;BMP180;32805;53.556;9.944;2023-02-28T01:18:44;102982.00;;;4.80
17142;BMP180;32805;53.556;9.944;2023-02-28T01:21:16;102973.00;;;4.70
17142;BMP180;32805;53.556;9.944;2023-02-28T01:23:44;102956.00;;;4.70
17142;BMP180;32805;53.556;9.944;2023-02-28T01:26:13;102962.00;;;4.70
17142;BMP180;32805;53.556;9.944;2023-02-28T01:28:42;102974.00;;;4.70
17142;BMP180;32805;53.556;9.944;2023-02-28T01:31:10;102978.00;;;4.70
17142;BMP180;32805;53.556;9.944;2023-02-28T01:33:38;102973.00;;;4.70
17142;BMP180;32805;53.556;9.944;2023-02-28T01:36:09;102958.00;;;4.70
17142;BMP180;32805;53.556;9.944;2023-02-28T01:38:39;102969.00;;;4.70
17142;BMP180;32805;53.556;9.944;2023-02-28T01:41:08;102960.00;;;4.70
17142;BMP180;32805;53.556;9.944;2023-02-28T01:43:58;102973.00;;;4.70
17142;BMP180;32805;53.556;9.944;2023-02-28T01:46:30;102963.00;;;4.70
17142;BMP180;32805;53.556;9.944;2023-02-28T01:49:02;102969.00;;;4.70
17142;BMP180;32805;53.556;9.944;2023-02-28T01:51:35;102970.00;;;4.70
17142;BMP180;32805;53.556;9.944;2023-02-28T01:54:09;102962.00;;;4.70
17142;BMP180;32805;53.556;9.944;2023-02-28T01:56:44;102964.00;;;4.70
17142;BMP180;32805;53.556;9.944;2023-02-28T01:59:14;102958.00;;;4.70
17142;BMP180;32805;53.556;9.944;2023-02-28T02:01:46;102953.00;;;4.70
17142;BMP180;32805;53.556;9.944;2023-02-28T02:04:14;102964.00;;;4.60
17142;BMP180;32805;53.556;9.944;2023-02-28T02:06:44;102961.00;;;4.60
17142;BMP180;32805;53.556;9.944;2023-02-28T02:09:14;102959.00;;;4.60
17142;BMP180;32805;53.556;9.944;2023-02-28T02:11:43;102959.00;;;4.60
17142;BMP180;32805;53.556;9.944;2023-02-28T02:14:32;102965.00;;;4.60
17142;BMP180;32805;53.556;9.944;2023-02-28T02:17:16;102961.00;;;4.70
17142;BMP180;32805;53.556;9.944;2023-02-28T02:20:19;102960.00;;;4.70
17142;BMP180;32805;53.556;9.944;2023-02-28T02:25:49;102960.00;;;4.60
17142;BMP180;32805;53.556;9.944;2023-02-28T02:28:42;102962.00;;;4.60
17142;BMP180;32805;53.556;9.944;2023-02-28T02:31:42;102972.00;;;4.60
17142;BMP180;32805;53.556;9.944;2023-02-28T02:34:28;102951.00;;;4.60
17142;BMP180;32805;53.556;9.944;2023-02-28T02:37:04;102948.00;;;4.60
17142;BMP180;32805;53.556;9.944;2023-02-28T02:39:45;102966.00;;;4.50
17142;BMP180;32805;53.556;9.944;2023-02-28T02:42:20;102958.00;;;4.40
17142;BMP180;32805;53.556;9.944;2023-02-28T02:44:52;102956.00;;;4.30
17142;BMP180;32805;53.556;9.944;2023-02-28T02:47:24;102959.00;;;4.20
17142;BMP180;32805;53.556;9.944;2023-02-28T02:49:56;102955.00;;;4.20
17142;BMP180;32805;53.556;9.944;2023-02-28T02:52:29;102963.00;;;4.10
17142;BMP180;32805;53.556;9.944;2023-02-28T02:54:58;102950.00;;;4.10
17142;BMP180;32805;53.556;9.944;2023-02-28T02:57:30;102953.00;;;4.00
17142;BMP180;32805;53.556;9.944;2023-02-28T03:00:00;102962.00;;;3.90
17142;BMP180;32805;53.556;9.944;2023-02-28T03:02:29;102951.00;;;3.80
17142;BMP180;32805;53.556;9.944;2023-02-28T03:05:04;102951.00;;;3.80
17142;BMP180;32805;53.556;9.944;2023-02-28T03:07:33;102947.00;;;3.70
17142;BMP180;32805;53.556;9.944;2023-02-28T03:10:01;102957.00;;;3.70
17142;BMP180;32805;53.556;9.944;2023-02-28T03:12:32;102956.00;;;3.70
17142;BMP180;32805;53.556;9.944;2023-02-28T03:15:10;102959.00;;;3.60
17142;BMP180;32805;53.556;9.944;2023-02-28T03:17:50;102973.00;;;3.60
17142;BMP180;32805;53.556;9.944;2023-02-28T03:20:29;102978.00;;;3.50
17142;BMP180;32805;53.556;9.944;2023-02-28T03:23:05;102968.00;;;3.50
17142;BMP180;32805;53.556;9.944;2023-02-28T03:25:42;102977.00;;;3.40
17142;BMP180;32805;53.556;9.944;2023-02-28T03:28:17;102979.00;;;3.40
17142;BMP180;32805;53.556;9.944;2023-02-28T03:30:49;102981.00;;;3.30
17142;BMP180;32805;53.556;9.944;2023-02-28T03:33:21;102963.00;;;3.30
17142;BMP180;32805;53.556;9.944;2023-02-28T03:35:55;102977.00;;;3.30
17142;BMP180;32805;53.556;9.944;2023-02-28T03:38:29;102973.00;;;3.30
17142;BMP180;32805;53.556;9.944;2023-02-28T03:41:03;102984.00;;;3.20
17142;BMP180;32805;53.556;9.944;2023-02-28T03:43:35;102968.00;;;3.10
17142;BMP180;32805;53.556;9.944;2023-02-28T03:46:08;102978.00;;;3.10
17142;BMP180;32805;53.556;9.944;2023-02-28T03:48:40;102977.00;;;3.10
17142;BMP180;32805;53.556;9.944;2023-02-28T03:51:14;102970.00;;;3.10
17142;BMP180;32805;53.556;9.944;2023-02-28T03:53:45;102974.00;;;3.00
17142;BMP180;32805;53.556;9.944;2023-02-28T03:56:16;102982.00;;;3.00
17142;BMP180;32805;53.556;9.944;2023-02-28T03:58:49;102986.00;;;3.00
17142;BMP180;32805;53.556;9.944;2023-02-28T04:01:22;102984.00;;;3.00
17142;BMP180;32805;53.556;9.944;2023-02-28T04:03:51;102971.00;;;2.90
17142;BMP180;32805;53.556;9.944;2023-02-28T04:06:22;102982.00;;;2.90
17142;BMP180;32805;53.556;9.944;2023-02-28T04:08:50;102990.00;;;2.90
17142;BMP180;32805;53.556;9.944;2023-02-28T04:11:23;102981.00;;;2.90
17142;BMP180;32805;53.556;9.944;2023-02-28T04:13:51;102978.00;;;2.80
17142;BMP180;32805;53.556;9.944;2023-02-28T04:16:19;102981.00;;;2.80
17142;BMP180;32805;53.556;9.944;2023-02-28T04:19:00;102972.00;;;2.70
17142;BMP180;32805;53.556;9.944;2023-02-28T04:21:31;102998.00;;;2.70
17142;BMP180;32805;53.556;9.944;2023-02-28T04:23:59;102992.00;;;2.60
17142;BMP180;32805;53.556;9.944;2023-02-28T04:26:28;102985.00;;;2.60
17142;BMP180;32805;53.556;9.944;2023-02-28T04:28:57;102995.00;;;2.60
17142;BMP180;32805;53.556;9.944;2023-02-28T04:31:25;102989.00;;;2.60
17142;BMP180;32805;53.556;9.944;2023-02-28T04:33:54;102993.00;;;2.70
17142;BMP180;32805;53.556;9.944;2023-02-28T04:36:22;102982.00;;;2.60
17142;BMP180;32805;53.556;9.944;2023-02-28T04:38:51;102987.00;;;2.60
17142;BMP180;32805;53.556;9.944;2023-02-28T04:41:21;102987.00;;;2.60
17142;BMP180;32805;53.556;9.944;2023-02-28T04:43:50;102993.00;;;2.60
17142;BMP180;32805;53.556;9.944;2023-02-28T04:46:18;102995.00;;;2.50
17142;BMP180;32805;53.556;9.944;2023-02-28T04:48:46;102990.00;;;2.50
17142;BMP180;32805;53.556;9.944;2023-02-28T04:51:15;102991.00;;;2.60
17142;BMP180;32805;53.556;9.944;2023-02-28T04:53:43;102998.00;;;2.50
17142;BMP180;32805;53.556;9.944;2023-02-28T04:56:14;102992.00;;;2.50
17142;BMP180;32805;53.556;9.944;2023-02-28T04:58:42;102989.00;;;2.40
17142;BMP180;32805;53.556;9.944;2023-02-28T05:01:17;102999.00;;;2.40
17142;BMP180;32805;53.556;9.944;2023-02-28T05:03:46;102995.00;;;2.40
17142;BMP180;32805;53.556;9.944;2023-02-28T05:06:14;102995.00;;;2.40
17142;BMP180;32805;53.556;9.944;2023-02-28T05:08:42;102999.00;;;2.40
17142;BMP180;32805;53.556;9.944;2023-02-28T05:11:15;103001.00;;;2.40
17142;BMP180;32805;53.556;9.944;2023-02-28T05:13:44;103001.00;;;2.40
17142;BMP180;32805;53.556;9.944;2023-02-28T05:16:12;103001.00;;;2.40
17142;BMP180;32805;53.556;9.944;2023-02-28T05:18:40;103006.00;;;2.40
17142;BMP180;32805;53.556;9.944;2023-02-28T05:21:23;103011.00;;;2.40
17142;BMP180;32805;53.556;9.944;2023-02-28T05:23:52;103008.00;;;2.30
17142;BMP180;32805;53.556;9.944;2023-02-28T05:26:21;103018.00;;;2.30
17142;BMP180;32805;53.556;9.944;2023-02-28T05:28:49;103011.00;;;2.20
17142;BMP180;32805;53.556;9.944;2023-02-28T05:31:17;103009.00;;;2.20
17142;BMP180;32805;53.556;9.944;2023-02-28T05:33:44;103005.00;;;2.20
17142;BMP180;32805;53.556;9.944;2023-02-28T05:36:12;103020.00;;;2.10
17142;BMP180;32805;53.556;9.944;2023-02-28T05:38:40;103020.00;;;2.10
17142;BMP180;32805;53.556;9.944;2023-02-28T05:41:09;103017.00;;;2.20
17142;BMP180;32805;53.556;9.944;2023-02-28T05:43:38;102997.00;;;2.20
17142;BMP180;32805;53.556;9.944;2023-02-28T05:46:07;103004.00;;;2.20
17142;BMP180;32805;53.556;9.944;2023-02-28T05:48:36;103014.00;;;2.20
17142;BMP180;32805;53.556;9.944;2023-02-28T05:51:05;102996.00;;;2.20
17142;BMP180;32805;53.556;9.944;2023-02-28T05:53:33;103010.00;;;2.20
17142;BMP180;32805;53.556;9.944;2023-02-28T05:56:01;103014.00;;;2.10
17142;BMP180;32805;53.556;9.944;2023-02-28T05:58:29;103025.00;;;2.10
17142;BMP180;32805;53.556;9.944;2023-02-28T06:01:00;103023.00;;;2.10
17142;BMP180;32805;53.556;9.944;2023-02-28T06:03:28;103022.00;;;2.10
17142;BMP180;32805;53.556;9.944;2023-02-28T06:05:55;103018.00;;;2.10
17142;BMP180;32805;53.556;9.944;2023-02-28T06:08:23;103015.00;;;2.10
17142;BMP180;32805;53.556;9.944;2023-02-28T06:10:51;103022.00;;;2.20
17142;BMP180;32805;53.556;9.944;2023-02-28T06:13:19;103025.00;;;2.20
17142;BMP180;32805;53.556;9.944;2023-02-28T06:15:47;103037.00;;;2.10
17142;BMP180;32805;53.556;9.944;2023-02-28T06:18:15;103042.00;;;2.10
17142;BMP180;32805;53.556;9.944;2023-02-28T06:20:43;103027.00;;;2.00
17142;BMP180;32805;53.556;9.944;2023-02-28T06:23:11;103042.00;;;2.00
17142;BMP180;32805;53.556;9.944;2023-02-28T06:25:38;103036.00;;;2.10
17142;BMP180;32805;53.556;9.944;2023-02-28T06:28:06;103041.00;;;2.10
17142;BMP180;32805;53.556;9.944;2023-02-28T06:30:33;103043.00;;;2.10
17142;BMP180;32805;53.556;9.944;2023-02-28T06:33:03;103049.00;;;2.20
17142;BMP180;32805;53.556;9.944;2023-02-28T06:35:32;103039.00;;;2.20
17142;BMP180;32805;53.556;9.944;2023-02-28T06:37:59;103045.00;;;2.20
17142;BMP180;32805;53.556;9.944;2023-02-28T06:40:27;103051.00;;;2.20
17142;BMP180;32805;53.556;9.944;2023-02-28T06:42:58;103042.00;;;2.20
17142;BMP180;32805;53.556;9.944;2023-02-28T06:45:25;103044.00;;;2.20
17142;BMP180;32805;53.556;9.944;2023-02-28T06:47:53;103046.00;;;2.30
17142;BMP180;32805;53.556;9.944;2023-02-28T06:50:20;103039.00;;;2.30
17142;BMP180;32805;53.556;9.944;2023-02-28T06:52:49;103044.00;;;2.30
17142;BMP180;32805;53.556;9.944;2023-02-28T06:55:20;103047.00;;;2.30
17142;BMP180;32805;53.556;9.944;2023-02-28T06:57:47;103037.00;;;2.30
17142;BMP180;32805;53.556;9.944;2023-02-28T07:00:17;103036.00;;;2.30
17142;BMP180;32805;53.556;9.944;2023-02-28T07:02:45;103041.00;;;2.30
17142;BMP180;32805;53.556;9.944;2023-02-28T07:05:13;103046.00;;;2.40
17142;BMP180;32805;53.556;9.944;2023-02-28T07:07:41;103042.00;;;2.30
17142;BMP180;32805;53.556;9.944;2023-02-28T07:10:12;103047.00;;;2.40
17142;BMP180;32805;53.556;9.944;2023-02-28T07:12:45;103056.00;;;2.40
17142;BMP180;32805;53.556;9.944;2023-02-28T07:15:13;103047.00;;;2.40
17142;BMP180;32805;53.556;9.944;2023-02-28T07:17:41;103060.00;;;2.40
17142;BMP180;32805;53.556;9.944;2023-02-28T07:20:09;103057.00;;;2.40
17142;BMP180;32805;53.556;9.944;2023-02-28T07:22:37;103062.00;;;2.40
17142;BMP180;32805;53.556;9.944;2023-02-28T07:25:06;103050.00;;;2.40
17142;BMP180;32805;53.556;9.944;2023-02-28T07:27:35;103061.00;;;2.40
17142;BMP180;32805;53.556;9.944;2023-02-28T07:30:04;103063.00;;;2.30
17142;BMP180;32805;53.556;9.944;2023-02-28T07:32:32;103066.00;;;2.30
17142;BMP180;32805;53.556;9.944;2023-02-28T07:34:59;103050.00;;;2.30
17142;BMP180;32805;53.556;9.944;2023-02-28T07:37:27;103054.00;;;2.40
17142;BMP180;32805;53.556;9.944;2023-02-28T07:39:57;103046.00;;;2.40
17142;BMP180;32805;53.556;9.944;2023-02-28T07:42:25;103054.00;;;2.40
17142;BMP180;32805;53.556;9.944;2023-02-28T07:44:54;103063.00;;;2.40
17142;BMP180;32805;53.556;9.944;2023-02-28T07:47:21;103058.00;;;2.40
17142;BMP180;32805;53.556;9.944;2023-02-28T07:49:51;103064.00;;;2.50
17142;BMP180;32805;53.556;9.944;2023-02-28T07:52:19;103067.00;;;2.50
17142;BMP180;32805;53.556;9.944;2023-02-28T07:54:46;103078.00;;;2.50
17142;BMP180;32805;53.556;9.944;2023-02-28T07:57:14;103060.00;;;2.60
17142;BMP180;32805;53.556;9.944;2023-02-28T07:59:42;103055.00;;;2.60
17142;BMP180;32805;53.556;9.944;2023-02-28T08:02:13;103074.00;;;2.70
17142;BMP180;32805;53.556;9.944;2023-02-28T08:04:42;103062.00;;;2.70
17142;BMP180;32805;53.556;9.944;2023-02-28T08:07:09;103061.00;;;2.80
17142;BMP180;32805;53.556;9.944;2023-02-28T08:09:39;103053.00;;;2.80
17142;BMP180;32805;53.556;9.944;2023-02-28T08:12:08;103062.00;;;2.90
17142;BMP180;32805;53.556;9.944;2023-02-28T08:14:36;103068.00;;;2.90
17142;BMP180;32805;53.556;9.944;2023-02-28T08:17:04;103062.00;;;3.00
17142;BMP180;32805;53.556;9.944;2023-02-28T08:19:33;103065.00;;;3.10
17142;BMP180;32805;53.556;9.944;2023-02-28T08:22:00;103069.00;;;3.10
17142;BMP180;32805;53.556;9.944;2023-02-28T08:24:28;103068.00;;;3.10
17142;BMP180;32805;53.556;9.944;2023-02-28T08:26:56;103075.00;;;3.20
17142;BMP180;32805;53.556;9.944;2023-02-28T08:29:24;103065.00;;;3.20
17142;BMP180;32805;53.556;9.944;2023-02-28T08:31:51;103066.00;;;3.30
17142;BMP180;32805;53.556;9.944;2023-02-28T08:34:19;103064.00;;;3.30
17142;BMP180;32805;53.556;9.944;2023-02-28T08:36:48;103067.00;;;3.50
17142;BMP180;32805;53.556;9.944;2023-02-28T08:39:16;103070.00;;;3.50
17142;BMP180;32805;53.556;9.944;2023-02-28T08:41:44;103061.00;;;3.60
17142;BMP180;32805;53.556;9.944;2023-02-28T08:44:16;103056.00;;;3.70
17142;BMP180;32805;53.556;9.944;2023-02-28T08:46:44;103058.00;;;3.70
17142;BMP180;32805;53.556;9.944;2023-02-28T08:49:11;103060.00;;;3.80
17142;BMP180;32805;53.556;9.944;2023-02-28T08:51:39;103059.00;;;3.80
17142;BMP180;32805;53.556;9.944;2023-02-28T08:54:08;103060.00;;;3.80
17142;BMP180;32805;53.556;9.944;2023-02-28T08:56:38;103070.00;;;3.80
17142;BMP180;32805;53.556;9.944;2023-02-28T08:59:08;103069.00;;;3.90
17142;BMP180;32805;53.556;9.944;2023-02-28T09:01:36;103065.00;;;4.10
17142;BMP180;32805;53.556;9.944;2023-02-28T09:04:04;103063.00;;;4.10
17142;BMP180;32805;53.556;9.944;2023-02-28T09:06:33;103066.00;;;4.10
17142;BMP180;32805;53.556;9.944;2023-02-28T09:09:01;103069.00;;;4.10
17142;BMP180;32805;53.556;9.944;2023-02-28T09:11:34;103063.00;;;4.10
17142;BMP180;32805;53.556;9.944;2023-02-28T09:14:03;103062.00;;;4.10
17142;BMP180;32805;53.556;9.944;2023-02-28T09:16:31;103062.00;;;4.10
17142;BMP180;32805;53.556;9.944;2023-02-28T09:19:00;103060.00;;;4.10
17142;BMP180;32805;53.556;9.944;2023-02-28T09:21:28;103072.00;;;4.20
17142;BMP180;32805;53.556;9.944;2023-02-28T09:23:56;103070.00;;;4.30
17142;BMP180;32805;53.556;9.944;2023-02-28T09:26:25;103071.00;;;4.40
17142;BMP180;32805;53.556;9.944;2023-02-28T09:29:06;103063.00;;;4.40
17142;BMP180;32805;53.556;9.944;2023-02-28T09:31:34;103060.00;;;4.40
17142;BMP180;32805;53.556;9.944;2023-02-28T09:34:01;103070.00;;;4.50
17142;BMP180;32805;53.556;9.944;2023-02-28T09:36:29;103073.00;;;4.60
17142;BMP180;32805;53.556;9.944;2023-02-28T09:39:10;103072.00;;;4.70
17142;BMP180;32805;53.556;9.944;2023-02-28T09:41:40;103083.00;;;4.50
17142;BMP180;32805;53.556;9.944;2023-02-28T09:44:20;103066.00;;;4.50
17142;BMP180;32805;53.556;9.944;2023-02-28T09:46:51;103065.00;;;4.60
17142;BMP180;32805;53.556;9.944;2023-02-28T09:49:24;103078.00;;;4.60
17142;BMP180;32805;53.556;9.944;2023-02-28T09:51:57;103080.00;;;4.70
17142;BMP180;32805;53.556;9.944;2023-02-28T09:54:29;103078.00;;;4.70
17142;BMP180;32805;53.556;9.944;2023-02-28T09:57:01;103087.00;;;4.70
17142;BMP180;32805;53.556;9.944;2023-02-28T09:59:41;103080.00;;;4.70
17142;BMP180;32805;53.556;9.944;2023-02-28T10:02:20;103082.00;;;4.80
17142;BMP180;32805;53.556;9.944;2023-02-28T10:04:53;103081.00;;;4.80
17142;BMP180;32805;53.556;9.944;2023-02-28T10:07:36;103080.00;;;4.80
17142;BMP180;32805;53.556;9.944;2023-02-28T10:10:13;103089.00;;;4.80
17142;BMP180;32805;53.556;9.944;2023-02-28T10:12:45;103078.00;;;4.80
17142;BMP180;32805;53.556;9.944;2023-02-28T10:15:16;103078.00;;;4.80
17142;BMP180;32805;53.556;9.944;2023-02-28T10:17:47;103072.00;;;4.90
17142;BMP180;32805;53.556;9.944;2023-02-28T10:20:27;103073.00;;;5.00
17142;BMP180;32805;53.556;9.944;2023-02-28T10:22:59;103073.00;;;5.00
17142;BMP180;32805;53.556;9.944;2023-02-28T10:25:35;103069.00;;;5.00
17142;BMP180;32805;53.556;9.944;2023-02-28T10:28:09;103077.00;;;5.00
17142;BMP180;32805;53.556;9.944;2023-02-28T10:30:41;103077.00;;;5.00
17142;BMP180;32805;53.556;9.944;2023-02-28T10:33:18;103074.00;;;5.00
17142;BMP180;32805;53.556;9.944;2023-02-28T10:35:47;103074.00;;;5.00
17142;BMP180;32805;53.556;9.944;2023-02-28T10:38:18;103074.00;;;5.00
17142;BMP180;32805;53.556;9.944;2023-02-28T10:40:46;103068.00;;;5.00
17142;BMP180;32805;53.556;9.944;2023-02-28T10:43:20;103069.00;;;5.10
17142;BMP180;32805;53.556;9.944;2023-02-28T10:45:59;103066.00;;;5.10
17142;BMP180;32805;53.556;9.944;2023-02-28T10:48:33;103068.00;;;5.20
17142;BMP180;32805;53.556;9.944;2023-02-28T10:51:02;103074.00;;;5.20
17142;BMP180;32805;53.556;9.944;2023-02-28T10:53:33;103072.00;;;5.20
17142;BMP180;32805;53.556;9.944;2023-02-28T10:56:23;103081.00;;;5.30
17142;BMP180;32805;53.556;9.944;2023-02-28T10:58:54;103082.00;;;5.20
17142;BMP180;32805;53.556;9.944;2023-02-28T11:01:27;103088.00;;;5.20
17142;BMP180;32805;53.556;9.944;2023-02-28T11:04:01;103075.00;;;5.30
17142;BMP180;32805;53.556;9.944;2023-02-28T11:06:31;103073.00;;;5.30
17142;BMP180;32805;53.556;9.944;2023-02-28T11:09:02;103072.00;;;5.30
17142;BMP180;32805;53.556;9.944;2023-02-28T11:11:42;103062.00;;;5.30
17142;BMP180;32805;53.556;9.944;2023-02-28T11:14:18;103068.00;;;5.30
17142;BMP180;32805;53.556;9.944;2023-02-28T11:16:48;103073.00;;;5.40
17142;BMP180;32805;53.556;9.944;2023-02-28T11:19:19;103068.00;;;5.60
17142;BMP180;32805;53.556;9.944;2023-02-28T11:21:54;103063.00;;;5.50
17142;BMP180;32805;53.556;9.944;2023-02-28T11:24:24;103066.00;;;5.50
17142;BMP180;32805;53.556;9.944;2023-02-28T11:26:54;103059.00;;;5.60
17142;BMP180;32805;53.556;9.944;2023-02-28T11:29:25;103059.00;;;5.60
17142;BMP180;32805;53.556;9.944;2023-02-28T11:32:09;103058.00;;;5.60
17142;BMP180;32805;53.556;9.944;2023-02-28T11:34:40;103056.00;;;5.70
17142;BMP180;32805;53.556;9.944;2023-02-28T11:37:11;103053.00;;;5.60
17142;BMP180;32805;53.556;9.944;2023-02-28T11:39:40;103054.00;;;5.60
17142;BMP180;32805;53.556;9.944;2023-02-28T11:42:28;103047.00;;;5.70
17142;BMP180;32805;53.556;9.944;2023-02-28T11:45:11;103047.00;;;5.70
17142;BMP180;32805;53.556;9.944;2023-02-28T11:47:47;103047.00;;;5.70
17142;BMP180;32805;53.556;9.944;2023-02-28T11:50:38;103046.00;;;5.80
17142;BMP180;32805;53.556;9.944;2023-02-28T11:53:17;103044.00;;;5.90
17142;BMP180;32805;53.556;9.944;2023-02-28T11:55:49;103039.00;;;5.90
17142;BMP180;32805;53.556;9.944;2023-02-28T11:58:29;103030.00;;;5.90
17142;BMP180;32805;53.556;9.944;2023-02-28T12:01:17;103029.00;;;5.90
17142;BMP180;32805;53.556;9.944;2023-02-28T12:03:56;103034.00;;;5.90
17142;BMP180;32805;53.556;9.944;2023-02-28T12:06:30;103026.00;;;5.90
17142;BMP180;32805;53.556;9.944;2023-02-28T12:09:08;103024.00;;;5.90
17142;BMP180;32805;53.556;9.944;2023-02-28T12:11:50;103022.00;;;5.90
17142;BMP180;32805;53.556;9.944;2023-02-28T12:14:49;103013.00;;;6.00
17142;BMP180;32805;53.556;9.944;2023-02-28T12:17:34;103004.00;;;6.00
17142;BMP180;32805;53.556;9.944;2023-02-28T12:20:17;103010.00;;;6.00
17142;BMP180;32805;53.556;9.944;2023-02-28T12:22:55;103007.00;;;6.00
17142;BMP180;32805;53.556;9.944;2023-02-28T12:25:51;102993.00;;;6.00
17142;BMP180;32805;53.556;9.944;2023-02-28T12:28:26;103000.00;;;6.10
17142;BMP180;32805;53.556;9.944;2023-02-28T12:30:59;102997.00;;;6.10
17142;BMP180;32805;53.556;9.944;2023-02-28T12:33:33;102987.00;;;6.20
17142;BMP180;32805;53.556;9.944;2023-02-28T12:36:07;102989.00;;;6.10
17142;BMP180;32805;53.556;9.944;2023-02-28T12:38:41;102983.00;;;6.20
17142;BMP180;32805;53.556;9.944;2023-02-28T12:41:12;102977.00;;;6.20
17142;BMP180;32805;53.556;9.944;2023-02-28T12:43:43;102972.00;;;6.20
17142;BMP180;32805;53.556;9.944;2023-02-28T12:46:15;102975.00;;;6.20
17142;BMP180;32805;53.556;9.944;2023-02-28T12:48:47;102965.00;;;6.20
17142;BMP180;32805;53.556;9.944;2023-02-28T12:51:18;102969.00;;;6.30
17142;BMP180;32805;53.556;9.944;2023-02-28T12:53:54;102961.00;;;6.30
17142;BMP180;32805;53.556;9.944;2023-02-28T12:56:32;102953.00;;;6.30
17142;BMP180;32805;53.556;9.944;2023-02-28T12:59:04;102938.00;;;6.40
17142;BMP180;32805;53.556;9.944;2023-02-28T13:01:46;102949.00;;;6.40
17142;BMP180;32805;53.556;9.944;2023-02-28T13:07:24;102940.00;;;6.40
17142;BMP180;32805;53.556;9.944;2023-02-28T13:09:57;102942.00;;;6.40
17142;BMP180;32805;53.556;9.944;2023-02-28T13:12:26;102949.00;;;6.40
17142;BMP180;32805;53.556;9.944;2023-02-28T13:15:04;102940.00;;;6.40
17142;BMP180;32805;53.556;9.944;2023-02-28T13:17:32;102926.00;;;6.30
17142;BMP180;32805;53.556;9.944;2023-02-28T13:20:00;102923.00;;;6.30
17142;BMP180;32805;53.556;9.944;2023-02-28T13:22:41;102925.00;;;6.30
17142;BMP180;32805;53.556;9.944;2023-02-28T13:25:50;102931.00;;;6.30
17142;BMP180;32805;53.556;9.944;2023-02-28T13:38:34;102918.00;;;6.30
17142;BMP180;32805;53.556;9.944;2023-02-28T13:44:09;102918.00;;;6.30
17142;BMP180;32805;53.556;9.944;2023-02-28T13:49:43;102920.00;;;6.40
17142;BMP180;32805;53.556;9.944;2023-02-28T13:52:15;102918.00;;;6.40
17142;BMP180;32805;53.556;9.944;2023-02-28T13:54:57;102923.00;;;6.40
17142;BMP180;32805;53.556;9.944;2023-02-28T13:57:35;102920.00;;;6.50
17142;BMP180;32805;53.556;9.944;2023-02-28T14:00:18;102910.00;;;6.50
17142;BMP180;32805;53.556;9.944;2023-02-28T14:03:02;102922.00;;;6.50
17142;BMP180;32805;53.556;9.944;2023-02-28T14:05:34;102920.00;;;6.50
17142;BMP180;32805;53.556;9.944;2023-02-28T14:08:05;102922.00;;;6.40
17142;BMP180;32805;53.556;9.944;2023-02-28T14:10:42;102924.00;;;6.40
17142;BMP180;32805;53.556;9.944;2023-02-28T14:16:04;102922.00;;;6.40
17142;BMP180;32805;53.556;9.944;2023-02-28T14:18:34;102923.00;;;6.50
17142;BMP180;32805;53.556;9.944;2023-02-28T14:21:14;102923.00;;;6.50
17142;BMP180;32805;53.556;9.944;2023-02-28T14:26:49;102930.00;;;6.50
17142;BMP180;32805;53.556;9.944;2023-02-28T14:29:30;102922.00;;;6.40
17142;BMP180;32805;53.556;9.944;2023-02-28T14:32:02;102926.00;;;6.50
17142;BMP180;32805;53.556;9.944;2023-02-28T14:34:41;102922.00;;;6.50
17142;BMP180;32805;53.556;9.944;2023-02-28T14:37:15;102928.00;;;6.50
17142;BMP180;32805;53.556;9.944;2023-02-28T14:39:44;102930.00;;;6.50
17142;BMP180;32805;53.556;9.944;2023-02-28T14:42:35;102923.00;;;6.50
17142;BMP180;32805;53.556;9.944;2023-02-28T14:45:04;102927.00;;;6.50
17142;BMP180;32805;53.556;9.944;2023-02-28T14:47:33;102918.00;;;6.50
17142;BMP180;32805;53.556;9.944;2023-02-28T14:50:04;102932.00;;;6.40
17142;BMP180;32805;53.556;9.944;2023-02-28T14:52:32;102936.00;;;6.40
17142;BMP180;32805;53.556;9.944;2023-02-28T14:55:04;102928.00;;;6.50
17142;BMP180;32805;53.556;9.944;2023-02-28T14:57:40;102928.00;;;6.50
17142;BMP180;32805;53.556;9.944;2023-02-28T15:00:15;102929.00;;;6.40
17142;BMP180;32805;53.556;9.944;2023-02-28T15:02:43;102934.00;;;6.40
17142;BMP180;32805;53.556;9.944;2023-02-28T15:05:22;102920.00;;;6.40